Terminal Aerodrome Forecast
Issued by NWS

Home | Current Version | Previous Version | Text Only | Print | Product List | Glossary On
Versions: 1 2 3 4 5 6 7 8 9 10 11 12 13 14 15 16 17
000
FTUS43 KMQT 021258 AAA
TAFCMX
TAF AMD
KCMX 021258Z 0213/0312 21007KT P6SM -SHRA SCT035 BKN070
     FM021500 30009KT P6SM BKN070
     FM022000 28012KT P6SM SCT070=

USA.gov is the U.S. government's official web portal to all federal, state and local government web resources and services.